sensor_id;sensor_type;location;lat;lon;timestamp;pressure;altitude;pressure_sealevel;temperature;humidity
23574;BME280;11965;53.640;10.050;2023-05-11T00:02:24;101239.94;;;11.68;100.00
23574;BME280;11965;53.640;10.050;2023-05-11T00:04:52;101237.38;;;11.66;100.00
23574;BME280;11965;53.640;10.050;2023-05-11T00:07:19;101244.19;;;11.64;100.00
23574;BME280;11965;53.640;10.050;2023-05-11T00:09:46;101241.78;;;11.61;100.00
23574;BME280;11965;53.640;10.050;2023-05-11T00:12:13;101232.09;;;11.57;100.00
23574;BME280;11965;53.640;10.050;2023-05-11T00:14:40;101242.44;;;11.63;100.00
23574;BME280;11965;53.640;10.050;2023-05-11T00:17:07;101246.19;;;11.70;100.00
23574;BME280;11965;53.640;10.050;2023-05-11T00:19:35;101246.56;;;11.67;100.00
23574;BME280;11965;53.640;10.050;2023-05-11T00:22:05;101245.50;;;11.68;100.00
23574;BME280;11965;53.640;10.050;2023-05-11T00:24:32;101249.06;;;11.62;100.00
23574;BME280;11965;53.640;10.050;2023-05-11T00:26:59;101246.47;;;11.60;100.00
23574;BME280;11965;53.640;10.050;2023-05-11T00:29:26;101258.91;;;11.64;100.00
23574;BME280;11965;53.640;10.050;2023-05-11T00:31:53;101252.31;;;11.65;100.00
23574;BME280;11965;53.640;10.050;2023-05-11T00:34:20;101244.19;;;11.64;100.00
23574;BME280;11965;53.640;10.050;2023-05-11T00:36:47;101251.44;;;11.65;100.00
23574;BME280;11965;53.640;10.050;2023-05-11T00:39:15;101249.91;;;11.62;100.00
23574;BME280;11965;53.640;10.050;2023-05-11T00:41:43;101250.75;;;11.63;100.00
23574;BME280;11965;53.640;10.050;2023-05-11T00:44:10;101254.50;;;11.55;100.00
23574;BME280;11965;53.640;10.050;2023-05-11T00:46:37;101248.00;;;11.48;100.00
23574;BME280;11965;53.640;10.050;2023-05-11T00:49:05;101255.28;;;11.49;100.00
23574;BME280;11965;53.640;10.050;2023-05-11T00:51:32;101245.81;;;11.58;100.00
23574;BME280;11965;53.640;10.050;2023-05-11T00:54:00;101249.84;;;11.56;100.00
23574;BME280;11965;53.640;10.050;2023-05-11T00:56:29;101243.78;;;11.52;100.00
23574;BME280;11965;53.640;10.050;2023-05-11T00:58:56;101243.13;;;11.50;100.00
23574;BME280;11965;53.640;10.050;2023-05-11T01:01:23;101239.28;;;11.51;100.00
23574;BME280;11965;53.640;10.050;2023-05-11T01:03:50;101247.78;;;11.49;100.00
23574;BME280;11965;53.640;10.050;2023-05-11T01:06:28;101248.19;;;11.46;100.00
23574;BME280;11965;53.640;10.050;2023-05-11T01:09:03;101252.31;;;11.50;100.00
23574;BME280;11965;53.640;10.050;2023-05-11T01:11:42;101254.59;;;11.47;100.00
23574;BME280;11965;53.640;10.050;2023-05-11T01:14:14;101250.56;;;11.49;100.00
23574;BME280;11965;53.640;10.050;2023-05-11T01:16:48;101250.03;;;11.39;100.00
23574;BME280;11965;53.640;10.050;2023-05-11T01:19:27;101250.38;;;11.36;100.00
23574;BME280;11965;53.640;10.050;2023-05-11T01:21:59;101258.59;;;11.44;100.00
23574;BME280;11965;53.640;10.050;2023-05-11T01:24:41;101255.09;;;11.50;100.00
23574;BME280;11965;53.640;10.050;2023-05-11T01:27:39;101254.69;;;11.39;100.00
23574;BME280;11965;53.640;10.050;2023-05-11T01:30:24;101259.75;;;11.35;100.00
23574;BME280;11965;53.640;10.050;2023-05-11T01:32:54;101259.38;;;11.38;100.00
23574;BME280;11965;53.640;10.050;2023-05-11T01:35:26;101255.56;;;11.39;100.00
23574;BME280;11965;53.640;10.050;2023-05-11T01:37:57;101262.44;;;11.43;100.00
23574;BME280;11965;53.640;10.050;2023-05-11T01:40:27;101266.59;;;11.47;100.00
23574;BME280;11965;53.640;10.050;2023-05-11T01:43:00;101260.53;;;11.44;100.00
23574;BME280;11965;53.640;10.050;2023-05-11T01:45:32;101264.53;;;11.41;100.00
23574;BME280;11965;53.640;10.050;2023-05-11T01:48:05;101264.06;;;11.38;100.00
23574;BME280;11965;53.640;10.050;2023-05-11T01:50:35;101263.41;;;11.36;100.00
23574;BME280;11965;53.640;10.050;2023-05-11T01:53:05;101276.72;;;11.40;100.00
23574;BME280;11965;53.640;10.050;2023-05-11T01:55:34;101265.22;;;11.43;100.00
23574;BME280;11965;53.640;10.050;2023-05-11T01:58:03;101265.03;;;11.45;100.00
23574;BME280;11965;53.640;10.050;2023-05-11T02:00:34;101270.59;;;11.45;100.00
23574;BME280;11965;53.640;10.050;2023-05-11T02:03:04;101278.72;;;11.46;100.00
23574;BME280;11965;53.640;10.050;2023-05-11T02:05:33;101277.19;;;11.44;100.00
23574;BME280;11965;53.640;10.050;2023-05-11T02:08:03;101279.47;;;11.40;100.00
23574;BME280;11965;53.640;10.050;2023-05-11T02:10:33;101279.00;;;11.37;100.00
23574;BME280;11965;53.640;10.050;2023-05-11T02:13:04;101279.09;;;11.43;100.00
23574;BME280;11965;53.640;10.050;2023-05-11T02:15:37;101275.56;;;11.35;100.00
23574;BME280;11965;53.640;10.050;2023-05-11T02:18:08;101285.91;;;11.41;100.00
23574;BME280;11965;53.640;10.050;2023-05-11T02:20:38;101286.38;;;11.44;100.00
23574;BME280;11965;53.640;10.050;2023-05-11T02:23:09;101288.97;;;11.46;100.00
23574;BME280;11965;53.640;10.050;2023-05-11T02:25:37;101292.22;;;11.49;100.00
23574;BME280;11965;53.640;10.050;2023-05-11T02:28:06;101292.41;;;11.48;100.00
23574;BME280;11965;53.640;10.050;2023-05-11T02:30:40;101288.97;;;11.46;100.00
23574;BME280;11965;53.640;10.050;2023-05-11T02:33:15;101295.75;;;11.43;100.00
23574;BME280;11965;53.640;10.050;2023-05-11T02:35:45;101300.84;;;11.40;100.00
23574;BME280;11965;53.640;10.050;2023-05-11T02:38:14;101285.22;;;11.39;100.00
23574;BME280;11965;53.640;10.050;2023-05-11T02:40:46;101294.03;;;11.42;100.00
23574;BME280;11965;53.640;10.050;2023-05-11T02:43:21;101293.28;;;11.48;100.00
23574;BME280;11965;53.640;10.050;2023-05-11T02:46:01;101293.84;;;11.44;100.00
23574;BME280;11965;53.640;10.050;2023-05-11T02:48:33;101295.00;;;11.49;100.00
23574;BME280;11965;53.640;10.050;2023-05-11T02:51:07;101299.69;;;11.49;100.00
23574;BME280;11965;53.640;10.050;2023-05-11T02:53:43;101300.84;;;11.40;100.00
23574;BME280;11965;53.640;10.050;2023-05-11T02:56:12;101296.91;;;11.34;100.00
23574;BME280;11965;53.640;10.050;2023-05-11T02:58:39;101290.53;;;11.25;100.00
23574;BME280;11965;53.640;10.050;2023-05-11T03:01:19;101299.47;;;11.36;100.00
23574;BME280;11965;53.640;10.050;2023-05-11T03:03:46;101298.44;;;11.37;100.00
23574;BME280;11965;53.640;10.050;2023-05-11T03:06:13;101302.16;;;11.29;100.00
23574;BME280;11965;53.640;10.050;2023-05-11T03:08:43;101304.41;;;11.25;100.00
23574;BME280;11965;53.640;10.050;2023-05-11T03:11:12;101297.84;;;11.26;100.00
23574;BME280;11965;53.640;10.050;2023-05-11T03:13:41;101297.06;;;11.18;100.00
23574;BME280;11965;53.640;10.050;2023-05-11T03:16:11;101301.38;;;11.20;100.00
23574;BME280;11965;53.640;10.050;2023-05-11T03:18:40;101302.97;;;11.15;100.00
23574;BME280;11965;53.640;10.050;2023-05-11T03:21:10;101301.06;;;11.15;100.00
23574;BME280;11965;53.640;10.050;2023-05-11T03:23:42;101301.41;;;11.12;100.00
23574;BME280;11965;53.640;10.050;2023-05-11T03:26:11;101299.53;;;11.13;100.00
23574;BME280;11965;53.640;10.050;2023-05-11T03:28:39;101298.22;;;11.23;100.00
23574;BME280;11965;53.640;10.050;2023-05-11T03:31:09;101298.94;;;11.17;100.00
23574;BME280;11965;53.640;10.050;2023-05-11T03:33:36;101295.09;;;11.03;100.00
23574;BME280;11965;53.640;10.050;2023-05-11T03:36:09;101294.91;;;11.05;100.00
23574;BME280;11965;53.640;10.050;2023-05-11T03:38:38;101296.84;;;11.04;100.00
23574;BME280;11965;53.640;10.050;2023-05-11T03:41:13;101298.06;;;11.02;100.00
23574;BME280;11965;53.640;10.050;2023-05-11T03:43:44;101299.78;;;11.03;100.00
23574;BME280;11965;53.640;10.050;2023-05-11T03:46:14;101297.63;;;11.13;100.00
23574;BME280;11965;53.640;10.050;2023-05-11T03:48:45;101298.31;;;11.15;100.00
23574;BME280;11965;53.640;10.050;2023-05-11T03:51:18;101297.72;;;11.20;100.00
23574;BME280;11965;53.640;10.050;2023-05-11T03:53:47;101285.38;;;11.08;100.00
23574;BME280;11965;53.640;10.050;2023-05-11T03:56:14;101295.00;;;10.97;100.00
23574;BME280;11965;53.640;10.050;2023-05-11T03:58:41;101294.69;;;10.92;100.00
23574;BME280;11965;53.640;10.050;2023-05-11T04:01:09;101297.94;;;10.95;100.00
23574;BME280;11965;53.640;10.050;2023-05-11T04:03:46;101298.94;;;11.02;100.00
23574;BME280;11965;53.640;10.050;2023-05-11T04:06:14;101303.94;;;11.07;100.00
23574;BME280;11965;53.640;10.050;2023-05-11T04:08:43;101302.19;;;11.06;100.00
23574;BME280;11965;53.640;10.050;2023-05-11T04:11:10;101287.84;;;11.02;100.00
23574;BME280;11965;53.640;10.050;2023-05-11T04:13:37;101289.38;;;11.05;100.00
23574;BME280;11965;53.640;10.050;2023-05-11T04:16:04;101303.16;;;11.13;100.00
23574;BME280;11965;53.640;10.050;2023-05-11T04:18:31;101296.63;;;11.06;100.00
23574;BME280;11965;53.640;10.050;2023-05-11T04:20:58;101296.56;;;11.14;100.00
23574;BME280;11965;53.640;10.050;2023-05-11T04:23:26;101301.28;;;11.28;100.00
23574;BME280;11965;53.640;10.050;2023-05-11T04:25:54;101301.84;;;11.24;100.00
23574;BME280;11965;53.640;10.050;2023-05-11T04:28:22;101305.88;;;11.21;100.00
23574;BME280;11965;53.640;10.050;2023-05-11T04:30:52;101305.31;;;11.26;100.00
23574;BME280;11965;53.640;10.050;2023-05-11T04:33:20;101318.13;;;11.27;100.00
23574;BME280;11965;53.640;10.050;2023-05-11T04:35:49;101314.78;;;11.32;100.00
23574;BME280;11965;53.640;10.050;2023-05-11T04:38:16;101313.25;;;11.29;100.00
23574;BME280;11965;53.640;10.050;2023-05-11T04:40:43;101311.34;;;11.30;100.00
23574;BME280;11965;53.640;10.050;2023-05-11T04:43:12;101318.72;;;11.37;100.00
23574;BME280;11965;53.640;10.050;2023-05-11T04:45:40;101316.25;;;11.42;100.00
23574;BME280;11965;53.640;10.050;2023-05-11T04:48:07;101315.47;;;11.48;100.00
23574;BME280;11965;53.640;10.050;2023-05-11T04:50:35;101317.69;;;11.53;100.00
23574;BME280;11965;53.640;10.050;2023-05-11T04:53:02;101314.13;;;11.44;100.00
23574;BME280;11965;53.640;10.050;2023-05-11T04:55:29;101315.78;;;11.54;100.00
23574;BME280;11965;53.640;10.050;2023-05-11T04:57:57;101318.44;;;11.47;100.00
23574;BME280;11965;53.640;10.050;2023-05-11T05:00:26;101324.97;;;11.39;100.00
23574;BME280;11965;53.640;10.050;2023-05-11T05:02:52;101329.31;;;11.34;100.00
23574;BME280;11965;53.640;10.050;2023-05-11T05:05:20;101321.50;;;11.52;100.00
23574;BME280;11965;53.640;10.050;2023-05-11T05:07:52;101322.47;;;11.59;100.00
23574;BME280;11965;53.640;10.050;2023-05-11T05:10:19;101324.56;;;11.57;100.00
23574;BME280;11965;53.640;10.050;2023-05-11T05:12:47;101333.03;;;11.64;100.00
23574;BME280;11965;53.640;10.050;2023-05-11T05:15:14;101328.31;;;11.79;100.00
23574;BME280;11965;53.640;10.050;2023-05-11T05:17:45;101329.31;;;11.86;100.00
23574;BME280;11965;53.640;10.050;2023-05-11T05:20:13;101330.28;;;11.93;100.00
23574;BME280;11965;53.640;10.050;2023-05-11T05:22:40;101329.44;;;11.93;100.00
23574;BME280;11965;53.640;10.050;2023-05-11T05:25:08;101328.94;;;12.04;100.00
23574;BME280;11965;53.640;10.050;2023-05-11T05:27:35;101334.50;;;12.04;100.00
23574;BME280;11965;53.640;10.050;2023-05-11T05:30:06;101331.22;;;12.15;100.00
23574;BME280;11965;53.640;10.050;2023-05-11T05:32:33;101333.22;;;12.36;100.00
23574;BME280;11965;53.640;10.050;2023-05-11T05:35:02;101334.38;;;12.27;100.00
23574;BME280;11965;53.640;10.050;2023-05-11T05:37:29;101330.28;;;12.23;100.00
23574;BME280;11965;53.640;10.050;2023-05-11T05:39:56;101337.44;;;12.32;100.00
23574;BME280;11965;53.640;10.050;2023-05-11T05:42:23;101335.25;;;12.28;100.00
23574;BME280;11965;53.640;10.050;2023-05-11T05:44:50;101347.91;;;12.15;100.00
23574;BME280;11965;53.640;10.050;2023-05-11T05:47:18;101343.09;;;12.24;100.00
23574;BME280;11965;53.640;10.050;2023-05-11T05:49:45;101353.34;;;12.38;100.00
23574;BME280;11965;53.640;10.050;2023-05-11T05:52:14;101347.50;;;12.33;100.00
23574;BME280;11965;53.640;10.050;2023-05-11T05:54:41;101343.56;;;12.43;100.00
23574;BME280;11965;53.640;10.050;2023-05-11T05:57:11;101346.78;;;12.46;100.00
23574;BME280;11965;53.640;10.050;2023-05-11T05:59:38;101355.56;;;12.28;100.00
23574;BME280;11965;53.640;10.050;2023-05-11T06:02:06;101358.63;;;12.33;100.00
23574;BME280;11965;53.640;10.050;2023-05-11T06:04:33;101355.19;;;12.31;100.00
23574;BME280;11965;53.640;10.050;2023-05-11T06:07:00;101354.22;;;12.24;100.00
23574;BME280;11965;53.640;10.050;2023-05-11T06:09:28;101353.06;;;12.33;100.00
23574;BME280;11965;53.640;10.050;2023-05-11T06:11:55;101363.00;;;12.43;100.00
23574;BME280;11965;53.640;10.050;2023-05-11T06:14:23;101367.09;;;12.62;100.00
23574;BME280;11965;53.640;10.050;2023-05-11T06:16:51;101368.00;;;12.47;100.00
23574;BME280;11965;53.640;10.050;2023-05-11T06:19:20;101370.69;;;12.41;100.00
23574;BME280;11965;53.640;10.050;2023-05-11T06:21:47;101362.84;;;12.29;100.00
23574;BME280;11965;53.640;10.050;2023-05-11T06:24:14;101365.97;;;12.41;100.00
23574;BME280;11965;53.640;10.050;2023-05-11T06:26:44;101368.00;;;12.47;100.00
23574;BME280;11965;53.640;10.050;2023-05-11T06:29:13;101366.84;;;12.42;100.00
23574;BME280;11965;53.640;10.050;2023-05-11T06:31:40;101372.88;;;12.45;100.00
23574;BME280;11965;53.640;10.050;2023-05-11T06:34:08;101367.22;;;12.53;100.00
23574;BME280;11965;53.640;10.050;2023-05-11T06:36:37;101365.78;;;12.57;100.00
23574;BME280;11965;53.640;10.050;2023-05-11T06:39:05;101365.22;;;12.47;100.00
23574;BME280;11965;53.640;10.050;2023-05-11T06:41:33;101380.25;;;12.53;100.00
23574;BME280;11965;53.640;10.050;2023-05-11T06:44:01;101362.50;;;12.54;100.00
23574;BME280;11965;53.640;10.050;2023-05-11T06:46:35;101376.34;;;12.47;100.00
23574;BME280;11965;53.640;10.050;2023-05-11T06:49:02;101378.06;;;12.48;100.00
23574;BME280;11965;53.640;10.050;2023-05-11T06:51:29;101376.63;;;12.52;100.00
23574;BME280;11965;53.640;10.050;2023-05-11T06:53:56;101372.59;;;12.55;100.00
23574;BME280;11965;53.640;10.050;2023-05-11T06:56:23;101381.56;;;12.57;100.00
23574;BME280;11965;53.640;10.050;2023-05-11T06:58:50;101380.41;;;12.66;100.00
23574;BME280;11965;53.640;10.050;2023-05-11T07:01:18;101382.47;;;12.57;100.00
23574;BME280;11965;53.640;10.050;2023-05-11T07:03:45;101381.28;;;12.52;100.00
23574;BME280;11965;53.640;10.050;2023-05-11T07:06:13;101378.72;;;12.50;100.00
23574;BME280;11965;53.640;10.050;2023-05-11T07:08:42;101379.56;;;12.66;100.00
23574;BME280;11965;53.640;10.050;2023-05-11T07:11:09;101380.41;;;12.66;100.00
23574;BME280;11965;53.640;10.050;2023-05-11T07:13:37;101379.63;;;12.72;100.00
23574;BME280;11965;53.640;10.050;2023-05-11T07:16:04;101387.78;;;12.74;100.00
23574;BME280;11965;53.640;10.050;2023-05-11T07:18:33;101379.91;;;12.77;100.00
23574;BME280;11965;53.640;10.050;2023-05-11T07:21:00;101375.31;;;12.70;100.00
23574;BME280;11965;53.640;10.050;2023-05-11T07:23:27;101380.72;;;12.93;100.00
23574;BME280;11965;53.640;10.050;2023-05-11T07:25:54;101386.03;;;13.09;100.00
23574;BME280;11965;53.640;10.050;2023-05-11T07:28:22;101385.09;;;13.02;100.00
23574;BME280;11965;53.640;10.050;2023-05-11T07:30:49;101393.13;;;12.90;100.00
23574;BME280;11965;53.640;10.050;2023-05-11T07:33:16;101384.81;;;12.97;100.00
23574;BME280;11965;53.640;10.050;2023-05-11T07:35:44;101391.91;;;12.99;100.00
23574;BME280;11965;53.640;10.050;2023-05-11T07:38:11;101385.78;;;13.04;100.00
23574;BME280;11965;53.640;10.050;2023-05-11T07:40:38;101390.94;;;13.07;100.00
23574;BME280;11965;53.640;10.050;2023-05-11T07:43:05;101391.34;;;13.04;100.00
23574;BME280;11965;53.640;10.050;2023-05-11T07:45:32;101397.09;;;13.02;100.00
23574;BME280;11965;53.640;10.050;2023-05-11T07:47:59;101392.19;;;13.04;100.00
23574;BME280;11965;53.640;10.050;2023-05-11T07:50:25;101395.69;;;13.13;100.00
23574;BME280;11965;53.640;10.050;2023-05-11T07:52:54;101393.03;;;13.05;100.00
23574;BME280;11965;53.640;10.050;2023-05-11T07:55:21;101398.75;;;13.18;100.00
23574;BME280;11965;53.640;10.050;2023-05-11T07:57:49;101399.00;;;13.02;100.00
23574;BME280;11965;53.640;10.050;2023-05-11T08:00:17;101404.31;;;12.97;100.00
23574;BME280;11965;53.640;10.050;2023-05-11T08:02:44;101399.41;;;12.99;100.00
23574;BME280;11965;53.640;10.050;2023-05-11T08:05:11;101392.41;;;13.24;100.00
23574;BME280;11965;53.640;10.050;2023-05-11T08:07:38;101401.56;;;13.40;100.00
23574;BME280;11965;53.640;10.050;2023-05-11T08:10:07;101400.41;;;13.28;100.00
23574;BME280;11965;53.640;10.050;2023-05-11T08:12:34;101406.00;;;13.34;100.00
23574;BME280;11965;53.640;10.050;2023-05-11T08:15:01;101401.56;;;13.40;100.00
23574;BME280;11965;53.640;10.050;2023-05-11T08:17:28;101401.28;;;13.35;100.00
23574;BME280;11965;53.640;10.050;2023-05-11T08:19:56;101403.69;;;13.38;100.00
23574;BME280;11965;53.640;10.050;2023-05-11T08:22:22;101404.69;;;13.52;100.00
23574;BME280;11965;53.640;10.050;2023-05-11T08:49:28;101422.19;;;13.45;100.00
23574;BME280;11965;53.640;10.050;2023-05-11T08:51:55;101421.47;;;13.37;100.00
23574;BME280;11965;53.640;10.050;2023-05-11T08:54:22;101416.56;;;13.24;100.00
23574;BME280;11965;53.640;10.050;2023-05-11T08:56:50;101408.84;;;13.19;100.00
23574;BME280;11965;53.640;10.050;2023-05-11T08:59:19;101413.91;;;13.16;100.00
23574;BME280;11965;53.640;10.050;2023-05-11T09:01:46;101415.34;;;13.26;100.00
23574;BME280;11965;53.640;10.050;2023-05-11T09:04:16;101412.66;;;13.33;100.00
23574;BME280;11965;53.640;10.050;2023-05-11T09:06:45;101409.31;;;13.44;100.00
23574;BME280;11965;53.640;10.050;2023-05-11T09:09:14;101418.88;;;13.35;100.00
23574;BME280;11965;53.640;10.050;2023-05-11T09:11:44;101413.91;;;13.52;100.00
23574;BME280;11965;53.640;10.050;2023-05-11T09:23:49;101412.84;;;13.32;100.00
23574;BME280;11965;53.640;10.050;2023-05-11T09:43:47;101424.56;;;13.27;100.00
23574;BME280;11965;53.640;10.050;2023-05-11T11:25:53;101414.19;;;15.10;100.00
23574;BME280;11965;53.640;10.050;2023-05-11T11:28:20;101414.78;;;14.92;100.00
23574;BME280;11965;53.640;10.050;2023-05-11T11:30:47;101417.53;;;14.85;100.00
23574;BME280;11965;53.640;10.050;2023-05-11T11:33:38;101416.50;;;14.86;100.00
23574;BME280;11965;53.640;10.050;2023-05-11T12:53:11;101405.19;;;17.31;98.34
23574;BME280;11965;53.640;10.050;2023-05-11T12:55:38;101397.00;;;17.86;98.32
23574;BME280;11965;53.640;10.050;2023-05-11T12:58:07;101399.03;;;18.22;95.68
23574;BME280;11965;53.640;10.050;2023-05-11T13:00:34;101395.53;;;18.27;92.51
23574;BME280;11965;53.640;10.050;2023-05-11T13:03:01;101386.09;;;18.21;94.44
23574;BME280;11965;53.640;10.050;2023-05-11T13:05:29;101392.34;;;18.42;92.01
23574;BME280;11965;53.640;10.050;2023-05-11T13:07:57;101386.88;;;18.65;91.99
23574;BME280;11965;53.640;10.050;2023-05-11T13:10:26;101383.06;;;18.23;91.14
23574;BME280;11965;53.640;10.050;2023-05-11T13:12:53;101388.66;;;18.23;95.92
23574;BME280;11965;53.640;10.050;2023-05-11T13:15:22;101391.56;;;18.35;92.28
23574;BME280;11965;53.640;10.050;2023-05-11T13:17:56;101386.94;;;18.59;91.46
23574;BME280;11965;53.640;10.050;2023-05-11T13:20:24;101391.63;;;18.83;89.33
23574;BME280;11965;53.640;10.050;2023-05-11T13:23:06;101383.13;;;18.71;86.16
23574;BME280;11965;53.640;10.050;2023-05-11T13:25:50;101387.03;;;18.89;84.65
23574;BME280;11965;53.640;10.050;2023-05-11T13:28:20;101383.59;;;18.68;85.96
23574;BME280;11965;53.640;10.050;2023-05-11T13:30:50;101384.59;;;18.74;87.41
23574;BME280;11965;53.640;10.050;2023-05-11T13:33:17;101385.28;;;19.06;86.08
23574;BME280;11965;53.640;10.050;2023-05-11T13:35:44;101380.03;;;19.10;85.40
23574;BME280;11965;53.640;10.050;2023-05-11T13:38:12;101372.38;;;19.29;86.36
23574;BME280;11965;53.640;10.050;2023-05-11T13:40:40;101371.38;;;19.53;83.24
23574;BME280;11965;53.640;10.050;2023-05-11T13:43:07;101372.03;;;19.91;84.40
23574;BME280;11965;53.640;10.050;2023-05-11T13:45:34;101369.84;;;20.16;82.37
23574;BME280;11965;53.640;10.050;2023-05-11T13:48:04;101371.19;;;20.14;78.76
23574;BME280;11965;53.640;10.050;2023-05-11T13:50:34;101367.25;;;20.15;78.21
23574;BME280;11965;53.640;10.050;2023-05-11T13:53:01;101367.31;;;19.61;78.36
23574;BME280;11965;53.640;10.050;2023-05-11T13:55:28;101372.28;;;18.75;86.68
23574;BME280;11965;53.640;10.050;2023-05-11T13:57:56;101367.47;;;18.82;84.72
23574;BME280;11965;53.640;10.050;2023-05-11T14:00:23;101354.19;;;18.71;82.65
23574;BME280;11965;53.640;10.050;2023-05-11T14:02:50;101359.03;;;18.82;85.69
23574;BME280;11965;53.640;10.050;2023-05-11T14:05:17;101341.13;;;18.95;88.84
23574;BME280;11965;53.640;10.050;2023-05-11T14:07:44;101341.00;;;19.32;82.99
23574;BME280;11965;53.640;10.050;2023-05-11T14:10:11;101343.16;;;19.72;80.97
23574;BME280;11965;53.640;10.050;2023-05-11T14:12:39;101337.06;;;19.75;80.52
23574;BME280;11965;53.640;10.050;2023-05-11T14:15:09;101340.75;;;19.22;80.72
23574;BME280;11965;53.640;10.050;2023-05-11T14:17:36;101338.03;;;18.85;83.73
23574;BME280;11965;53.640;10.050;2023-05-11T14:20:04;101341.84;;;18.72;88.61
23574;BME280;11965;53.640;10.050;2023-05-11T14:22:31;101333.00;;;19.05;87.77
23574;BME280;11965;53.640;10.050;2023-05-11T14:24:58;101333.31;;;19.39;87.20
23574;BME280;11965;53.640;10.050;2023-05-11T14:27:26;101325.00;;;19.44;84.79
23574;BME280;11965;53.640;10.050;2023-05-11T14:29:53;101322.63;;;19.83;83.46
23574;BME280;11965;53.640;10.050;2023-05-11T14:32:22;101327.75;;;19.98;83.40
23574;BME280;11965;53.640;10.050;2023-05-11T14:34:49;101324.22;;;19.79;82.82
23574;BME280;11965;53.640;10.050;2023-05-11T14:37:16;101321.66;;;19.89;82.45
23574;BME280;11965;53.640;10.050;2023-05-11T14:39:43;101321.47;;;19.60;80.87
23574;BME280;11965;53.640;10.050;2023-05-11T14:42:10;101313.91;;;19.61;83.86
23574;BME280;11965;53.640;10.050;2023-05-11T14:44:38;101315.97;;;19.42;83.59
23574;BME280;11965;53.640;10.050;2023-05-11T14:47:06;101328.72;;;19.03;83.26
23574;BME280;11965;53.640;10.050;2023-05-11T14:49:34;101325.50;;;19.29;85.08
23574;BME280;11965;53.640;10.050;2023-05-11T14:52:01;101321.13;;;19.45;81.42
23574;BME280;11965;53.640;10.050;2023-05-11T14:54:28;101321.03;;;18.80;84.13
23574;BME280;11965;53.640;10.050;2023-05-11T14:56:55;101326.69;;;19.22;85.89
23574;BME280;11965;53.640;10.050;2023-05-11T14:59:22;101326.69;;;19.33;85.29
23574;BME280;11965;53.640;10.050;2023-05-11T15:01:50;101322.09;;;19.51;84.06
23574;BME280;11965;53.640;10.050;2023-05-11T15:04:18;101318.34;;;19.80;83.83
23574;BME280;11965;53.640;10.050;2023-05-11T15:06:46;101323.50;;;19.83;82.60
23574;BME280;11965;53.640;10.050;2023-05-11T15:09:13;101328.75;;;19.92;82.60
23574;BME280;11965;53.640;10.050;2023-05-11T15:11:40;101325.50;;;19.53;84.06
23574;BME280;11965;53.640;10.050;2023-05-11T15:14:10;101317.94;;;19.53;82.63
23574;BME280;11965;53.640;10.050;2023-05-11T15:16:37;101318.09;;;19.70;84.08
23574;BME280;11965;53.640;10.050;2023-05-11T15:19:04;101327.88;;;19.79;82.97
23574;BME280;11965;53.640;10.050;2023-05-11T15:21:31;101321.75;;;19.59;83.57
23574;BME280;11965;53.640;10.050;2023-05-11T15:23:59;101327.34;;;19.47;83.50
23574;BME280;11965;53.640;10.050;2023-05-11T15:26:26;101332.00;;;19.65;81.87
23574;BME280;11965;53.640;10.050;2023-05-11T15:28:53;101320.75;;;19.65;81.32
23574;BME280;11965;53.640;10.050;2023-05-11T15:31:20;101321.91;;;19.76;83.33
23574;BME280;11965;53.640;10.050;2023-05-11T15:33:50;101319.81;;;19.71;80.68
23574;BME280;11965;53.640;10.050;2023-05-11T15:36:17;101322.22;;;19.56;81.75
23574;BME280;11965;53.640;10.050;2023-05-11T15:38:44;101324.38;;;19.42;82.90
23574;BME280;11965;53.640;10.050;2023-05-11T15:41:12;101321.06;;;19.22;82.48
23574;BME280;11965;53.640;10.050;2023-05-11T15:43:39;101327.81;;;19.44;83.45
23574;BME280;11965;53.640;10.050;2023-05-11T15:46:06;101317.56;;;19.50;84.76
23574;BME280;11965;53.640;10.050;2023-05-11T15:48:33;101321.34;;;19.43;85.08
23574;BME280;11965;53.640;10.050;2023-05-11T15:51:00;101316.88;;;19.66;84.39
23574;BME280;11965;53.640;10.050;2023-05-11T15:53:27;101321.03;;;19.75;82.32
23574;BME280;11965;53.640;10.050;2023-05-11T15:55:54;101320.56;;;19.67;83.16
23574;BME280;11965;53.640;10.050;2023-05-11T15:58:23;101331.69;;;19.73;84.53
23574;BME280;11965;53.640;10.050;2023-05-11T16:00:50;101324.28;;;19.60;82.74
23574;BME280;11965;53.640;10.050;2023-05-11T16:03:17;101325.28;;;19.42;84.65
23574;BME280;11965;53.640;10.050;2023-05-11T16:05:45;101328.94;;;19.55;86.81
23574;BME280;11965;53.640;10.050;2023-05-11T16:08:12;101332.25;;;19.63;84.12
23574;BME280;11965;53.640;10.050;2023-05-11T16:10:39;101328.88;;;19.73;84.43
23574;BME280;11965;53.640;10.050;2023-05-11T16:13:06;101326.91;;;19.85;82.54
23574;BME280;11965;53.640;10.050;2023-05-11T16:15:34;101327.88;;;19.68;83.26
23574;BME280;11965;53.640;10.050;2023-05-11T16:18:01;101327.72;;;19.62;81.33
23574;BME280;11965;53.640;10.050;2023-05-11T16:20:28;101329.41;;;19.40;84.31
23574;BME280;11965;53.640;10.050;2023-05-11T16:22:55;101321.22;;;19.27;85.18
23574;BME280;11965;53.640;10.050;2023-05-11T16:25:24;101323.31;;;19.01;86.73
23574;BME280;11965;53.640;10.050;2023-05-11T16:27:51;101320.56;;;18.83;86.84
23574;BME280;11965;53.640;10.050;2023-05-11T16:30:18;101324.25;;;18.65;87.52